Archival Weather

Snohomish County (Paine Fld)

Everett, Washington (KPAE)

Report from: Wednesday, November 22, 2023 4:41 AM PST
Current time: Monday, June 17, 2024 1:29 AM PDT

Current weather – Weather history – Daily summaries
Weather forecast

Present weatherMist
Temperature8.3°C (46.9°F)
Wind chill6.8°C (44.2°F)
Dew point6.7°C (44.1°F)
Winds 5 kts (2.6 m/s, 5.8 mph) Northwest (320°)
Visibility1 mi. (1.6 km)
Clouds Ceiling: Vertical visibility 100 ft. (30 m)
Altimeter30.33 in.Hg (1027 mB)
Relative humidity90 %
Density altitude-1,131 ft. (-345 m)
Remarks Fully automated report
Automated weather observing station with precipitation discriminator
Flight conditions Low Instrument Meteorological Conditions
Raw dataKPAE 221241Z AUTO 32005KT 1SM R16R/2400VP6000FT BR VV001 08/07 A3033 RMK AO2 T00830067
An error has occurred. This application may no longer respond until reloaded. Reload 🗙